Terminal Aerodrome Forecast
Issued by NWS Tuscon, AZ

Home | Current Version | Previous Version | Text Only | Print | Product List | Glossary On
Versions: 1 2 3 4 5 6 7 8 9 10 11 12 13 14 15 16 17 18 19 20 21
000
FTUS45 KTWC 271700
TAFDUG
TAF
KDUG 271728Z 2718/2818 30005KT P6SM FEW050 SCT220
     FM272100 33006KT P6SM VCSH SCT060 SCT220
     FM280000 36008KT P6SM SCT060 SCT220
     FM280400 03005KT P6SM FEW060
     FM281100 VRB04KT P6SM SKC=

USA.gov is the U.S. government's official web portal to all federal, state and local government web resources and services.